sensor_id;sensor_type;location;lat;lon;timestamp;P1;durP1;ratioP1;P2;durP2;ratioP2
51660;SDS011;37741;49.748;8.490;2023-05-10T00:01:39;1.52;;;0.80;;
51660;SDS011;37741;49.748;8.490;2023-05-10T00:04:05;1.05;;;0.50;;
51660;SDS011;37741;49.748;8.490;2023-05-10T00:06:31;2.75;;;0.70;;
51660;SDS011;37741;49.748;8.490;2023-05-10T00:08:57;1.30;;;0.50;;
51660;SDS011;37741;49.748;8.490;2023-05-10T00:11:22;1.33;;;0.60;;
51660;SDS011;37741;49.748;8.490;2023-05-10T00:13:48;1.05;;;0.50;;
51660;SDS011;37741;49.748;8.490;2023-05-10T00:16:14;1.75;;;0.57;;
51660;SDS011;37741;49.748;8.490;2023-05-10T00:18:39;1.42;;;0.40;;
51660;SDS011;37741;49.748;8.490;2023-05-10T00:21:05;1.23;;;0.50;;
51660;SDS011;37741;49.748;8.490;2023-05-10T00:23:31;1.23;;;0.50;;
51660;SDS011;37741;49.748;8.490;2023-05-10T00:25:56;1.05;;;0.45;;
51660;SDS011;37741;49.748;8.490;2023-05-10T00:28:22;1.52;;;0.52;;
51660;SDS011;37741;49.748;8.490;2023-05-10T00:30:48;1.38;;;0.52;;
51660;SDS011;37741;49.748;8.490;2023-05-10T00:33:14;0.32;;;0.28;;
51660;SDS011;37741;49.748;8.490;2023-05-10T00:35:39;0.63;;;0.40;;
51660;SDS011;37741;49.748;8.490;2023-05-10T00:38:05;1.08;;;0.60;;
51660;SDS011;37741;49.748;8.490;2023-05-10T00:40:30;1.65;;;0.60;;
51660;SDS011;37741;49.748;8.490;2023-05-10T00:42:56;2.58;;;0.63;;
51660;SDS011;37741;49.748;8.490;2023-05-10T00:45:23;1.42;;;0.40;;
51660;SDS011;37741;49.748;8.490;2023-05-10T00:47:49;2.78;;;0.50;;
51660;SDS011;37741;49.748;8.490;2023-05-10T00:50:17;0.45;;;0.40;;
51660;SDS011;37741;49.748;8.490;2023-05-10T00:52:42;1.02;;;0.40;;
51660;SDS011;37741;49.748;8.490;2023-05-10T00:55:09;0.88;;;0.50;;
51660;SDS011;37741;49.748;8.490;2023-05-10T00:57:36;0.80;;;0.50;;
51660;SDS011;37741;49.748;8.490;2023-05-10T01:00:02;0.95;;;0.47;;
51660;SDS011;37741;49.748;8.490;2023-05-10T01:02:28;0.77;;;0.45;;
51660;SDS011;37741;49.748;8.490;2023-05-10T01:04:53;1.00;;;0.40;;
51660;SDS011;37741;49.748;8.490;2023-05-10T01:07:20;1.15;;;0.50;;
51660;SDS011;37741;49.748;8.490;2023-05-10T01:09:45;0.40;;;0.28;;
51660;SDS011;37741;49.748;8.490;2023-05-10T01:12:11;1.42;;;0.50;;
51660;SDS011;37741;49.748;8.490;2023-05-10T01:14:37;0.82;;;0.52;;
51660;SDS011;37741;49.748;8.490;2023-05-10T01:17:03;0.38;;;0.20;;
51660;SDS011;37741;49.748;8.490;2023-05-10T01:19:31;1.30;;;0.50;;
51660;SDS011;37741;49.748;8.490;2023-05-10T01:33:22;1.33;;;0.60;;
51660;SDS011;37741;49.748;8.490;2023-05-10T01:38:42;1.20;;;0.57;;
51660;SDS011;37741;49.748;8.490;2023-05-10T01:41:19;0.45;;;0.30;;
51660;SDS011;37741;49.748;8.490;2023-05-10T01:43:55;0.57;;;0.38;;
51660;SDS011;37741;49.748;8.490;2023-05-10T01:46:32;1.08;;;0.52;;
51660;SDS011;37741;49.748;8.490;2023-05-10T01:49:00;3.33;;;0.50;;
51660;SDS011;37741;49.748;8.490;2023-05-10T01:51:32;1.48;;;0.95;;
51660;SDS011;37741;49.748;8.490;2023-05-10T01:54:05;1.42;;;0.63;;
51660;SDS011;37741;49.748;8.490;2023-05-10T01:56:33;0.63;;;0.40;;
51660;SDS011;37741;49.748;8.490;2023-05-10T01:59:00;0.63;;;0.40;;
51660;SDS011;37741;49.748;8.490;2023-05-10T02:01:32;1.05;;;0.52;;
51660;SDS011;37741;49.748;8.490;2023-05-10T02:04:01;2.28;;;1.05;;
51660;SDS011;37741;49.748;8.490;2023-05-10T02:06:27;0.80;;;0.40;;
51660;SDS011;37741;49.748;8.490;2023-05-10T02:08:53;1.00;;;0.43;;
51660;SDS011;37741;49.748;8.490;2023-05-10T02:11:19;0.82;;;0.43;;
51660;SDS011;37741;49.748;8.490;2023-05-10T02:13:46;1.15;;;0.60;;
51660;SDS011;37741;49.748;8.490;2023-05-10T02:16:14;1.20;;;0.40;;
51660;SDS011;37741;49.748;8.490;2023-05-10T02:18:41;1.30;;;0.52;;
51660;SDS011;37741;49.748;8.490;2023-05-10T02:21:08;0.80;;;0.50;;
51660;SDS011;37741;49.748;8.490;2023-05-10T02:23:35;0.70;;;0.52;;
51660;SDS011;37741;49.748;8.490;2023-05-10T02:26:02;1.10;;;0.57;;
51660;SDS011;37741;49.748;8.490;2023-05-10T02:28:28;0.77;;;0.40;;
51660;SDS011;37741;49.748;8.490;2023-05-10T02:30:55;3.40;;;1.08;;
51660;SDS011;37741;49.748;8.490;2023-05-10T02:33:22;1.83;;;0.70;;
51660;SDS011;37741;49.748;8.490;2023-05-10T02:35:48;1.42;;;0.73;;
51660;SDS011;37741;49.748;8.490;2023-05-10T02:38:15;1.90;;;0.80;;
51660;SDS011;37741;49.748;8.490;2023-05-10T02:40:44;1.17;;;0.57;;
51660;SDS011;37741;49.748;8.490;2023-05-10T02:43:12;2.17;;;0.73;;
51660;SDS011;37741;49.748;8.490;2023-05-10T02:45:39;0.98;;;0.60;;
51660;SDS011;37741;49.748;8.490;2023-05-10T02:48:06;1.67;;;0.65;;
51660;SDS011;37741;49.748;8.490;2023-05-10T02:50:32;1.67;;;0.75;;
51660;SDS011;37741;49.748;8.490;2023-05-10T02:53:03;1.40;;;0.90;;
51660;SDS011;37741;49.748;8.490;2023-05-10T02:55:40;1.35;;;0.70;;
51660;SDS011;37741;49.748;8.490;2023-05-10T02:58:07;1.60;;;0.68;;
51660;SDS011;37741;49.748;8.490;2023-05-10T03:00:33;1.48;;;0.77;;
51660;SDS011;37741;49.748;8.490;2023-05-10T03:02:59;2.75;;;0.80;;
51660;SDS011;37741;49.748;8.490;2023-05-10T03:05:25;1.42;;;0.70;;
51660;SDS011;37741;49.748;8.490;2023-05-10T03:07:51;1.75;;;0.85;;
51660;SDS011;37741;49.748;8.490;2023-05-10T03:10:17;1.63;;;0.95;;
51660;SDS011;37741;49.748;8.490;2023-05-10T03:12:55;1.02;;;0.60;;
51660;SDS011;37741;49.748;8.490;2023-05-10T03:18:19;1.10;;;0.70;;
51660;SDS011;37741;49.748;8.490;2023-05-10T03:20:48;2.20;;;0.95;;
51660;SDS011;37741;49.748;8.490;2023-05-10T03:23:21;1.30;;;0.70;;
51660;SDS011;37741;49.748;8.490;2023-05-10T03:25:51;3.15;;;0.75;;
51660;SDS011;37741;49.748;8.490;2023-05-10T03:28:17;1.42;;;0.77;;
51660;SDS011;37741;49.748;8.490;2023-05-10T03:30:45;1.75;;;0.95;;
51660;SDS011;37741;49.748;8.490;2023-05-10T03:33:11;3.45;;;1.10;;
51660;SDS011;37741;49.748;8.490;2023-05-10T03:35:38;1.38;;;0.80;;
51660;SDS011;37741;49.748;8.490;2023-05-10T03:38:03;1.80;;;1.00;;
51660;SDS011;37741;49.748;8.490;2023-05-10T03:40:29;2.15;;;1.30;;
51660;SDS011;37741;49.748;8.490;2023-05-10T03:42:56;1.48;;;0.80;;
51660;SDS011;37741;49.748;8.490;2023-05-10T03:45:23;2.20;;;0.80;;
51660;SDS011;37741;49.748;8.490;2023-05-10T03:47:48;1.65;;;0.95;;
51660;SDS011;37741;49.748;8.490;2023-05-10T03:50:14;1.95;;;0.80;;
51660;SDS011;37741;49.748;8.490;2023-05-10T03:52:40;1.77;;;1.00;;
51660;SDS011;37741;49.748;8.490;2023-05-10T03:55:06;1.70;;;1.00;;
51660;SDS011;37741;49.748;8.490;2023-05-10T03:57:32;1.92;;;1.00;;
51660;SDS011;37741;49.748;8.490;2023-05-10T03:59:58;1.65;;;0.80;;
51660;SDS011;37741;49.748;8.490;2023-05-10T04:02:24;3.28;;;0.95;;
51660;SDS011;37741;49.748;8.490;2023-05-10T04:04:50;2.05;;;1.13;;
51660;SDS011;37741;49.748;8.490;2023-05-10T04:07:16;2.35;;;1.08;;
51660;SDS011;37741;49.748;8.490;2023-05-10T04:09:41;1.70;;;1.10;;
51660;SDS011;37741;49.748;8.490;2023-05-10T04:12:07;2.15;;;1.10;;
51660;SDS011;37741;49.748;8.490;2023-05-10T04:14:32;2.30;;;1.05;;
51660;SDS011;37741;49.748;8.490;2023-05-10T04:16:58;1.83;;;0.98;;
51660;SDS011;37741;49.748;8.490;2023-05-10T04:19:28;3.60;;;1.30;;
51660;SDS011;37741;49.748;8.490;2023-05-10T04:21:54;1.75;;;1.08;;
51660;SDS011;37741;49.748;8.490;2023-05-10T04:24:20;2.60;;;1.20;;
51660;SDS011;37741;49.748;8.490;2023-05-10T04:26:45;2.22;;;0.90;;
51660;SDS011;37741;49.748;8.490;2023-05-10T04:29:11;3.13;;;1.38;;
51660;SDS011;37741;49.748;8.490;2023-05-10T04:31:37;1.50;;;0.90;;
51660;SDS011;37741;49.748;8.490;2023-05-10T04:34:02;2.00;;;1.30;;
51660;SDS011;37741;49.748;8.490;2023-05-10T04:36:28;3.28;;;1.27;;
51660;SDS011;37741;49.748;8.490;2023-05-10T04:38:53;1.65;;;1.05;;
51660;SDS011;37741;49.748;8.490;2023-05-10T04:41:19;2.88;;;1.40;;
51660;SDS011;37741;49.748;8.490;2023-05-10T04:43:45;1.67;;;0.93;;
51660;SDS011;37741;49.748;8.490;2023-05-10T04:46:11;1.40;;;0.90;;
51660;SDS011;37741;49.748;8.490;2023-05-10T04:48:36;2.25;;;1.58;;
51660;SDS011;37741;49.748;8.490;2023-05-10T04:51:02;2.00;;;0.93;;
51660;SDS011;37741;49.748;8.490;2023-05-10T04:53:29;2.10;;;1.20;;
51660;SDS011;37741;49.748;8.490;2023-05-10T04:55:54;2.10;;;1.10;;
51660;SDS011;37741;49.748;8.490;2023-05-10T04:58:20;2.22;;;0.93;;
51660;SDS011;37741;49.748;8.490;2023-05-10T05:00:46;2.08;;;1.00;;
51660;SDS011;37741;49.748;8.490;2023-05-10T05:03:11;2.15;;;1.30;;
51660;SDS011;37741;49.748;8.490;2023-05-10T05:05:37;2.20;;;1.38;;
51660;SDS011;37741;49.748;8.490;2023-05-10T05:08:03;1.50;;;0.90;;
51660;SDS011;37741;49.748;8.490;2023-05-10T05:10:28;1.70;;;0.93;;
51660;SDS011;37741;49.748;8.490;2023-05-10T05:12:54;2.97;;;1.13;;
51660;SDS011;37741;49.748;8.490;2023-05-10T05:15:20;1.88;;;1.10;;
51660;SDS011;37741;49.748;8.490;2023-05-10T05:20:11;1.98;;;1.20;;
51660;SDS011;37741;49.748;8.490;2023-05-10T05:22:38;3.47;;;1.30;;
51660;SDS011;37741;49.748;8.490;2023-05-10T05:25:04;2.25;;;1.23;;
51660;SDS011;37741;49.748;8.490;2023-05-10T05:27:30;2.00;;;1.20;;
51660;SDS011;37741;49.748;8.490;2023-05-10T05:29:57;3.38;;;1.17;;
51660;SDS011;37741;49.748;8.490;2023-05-10T05:32:23;1.85;;;1.10;;
51660;SDS011;37741;49.748;8.490;2023-05-10T05:34:49;2.33;;;1.15;;
51660;SDS011;37741;49.748;8.490;2023-05-10T05:37:16;2.95;;;1.08;;
51660;SDS011;37741;49.748;8.490;2023-05-10T05:39:43;2.30;;;0.85;;
51660;SDS011;37741;49.748;8.490;2023-05-10T05:42:10;2.00;;;1.00;;
51660;SDS011;37741;49.748;8.490;2023-05-10T05:44:36;1.42;;;0.90;;
51660;SDS011;37741;49.748;8.490;2023-05-10T05:47:02;3.15;;;1.13;;
51660;SDS011;37741;49.748;8.490;2023-05-10T05:49:28;2.45;;;1.25;;
51660;SDS011;37741;49.748;8.490;2023-05-10T05:51:54;2.78;;;1.20;;
51660;SDS011;37741;49.748;8.490;2023-05-10T05:54:19;1.88;;;1.02;;
51660;SDS011;37741;49.748;8.490;2023-05-10T05:56:45;2.33;;;1.10;;
51660;SDS011;37741;49.748;8.490;2023-05-10T05:59:11;1.90;;;1.08;;
51660;SDS011;37741;49.748;8.490;2023-05-10T06:01:37;2.20;;;1.33;;
51660;SDS011;37741;49.748;8.490;2023-05-10T06:04:02;3.30;;;1.40;;
51660;SDS011;37741;49.748;8.490;2023-05-10T06:06:28;4.30;;;1.48;;
51660;SDS011;37741;49.748;8.490;2023-05-10T06:08:54;2.42;;;1.20;;
51660;SDS011;37741;49.748;8.490;2023-05-10T06:11:20;2.22;;;1.23;;
51660;SDS011;37741;49.748;8.490;2023-05-10T06:13:46;2.40;;;1.20;;
51660;SDS011;37741;49.748;8.490;2023-05-10T06:16:12;2.83;;;1.33;;
51660;SDS011;37741;49.748;8.490;2023-05-10T06:18:38;2.10;;;1.38;;
51660;SDS011;37741;49.748;8.490;2023-05-10T06:21:03;2.67;;;1.35;;
51660;SDS011;37741;49.748;8.490;2023-05-10T06:23:29;2.75;;;1.73;;
51660;SDS011;37741;49.748;8.490;2023-05-10T06:25:55;8.23;;;2.05;;
51660;SDS011;37741;49.748;8.490;2023-05-10T06:28:21;2.85;;;1.88;;
51660;SDS011;37741;49.748;8.490;2023-05-10T06:30:46;3.58;;;1.33;;
51660;SDS011;37741;49.748;8.490;2023-05-10T06:33:12;3.05;;;1.27;;
51660;SDS011;37741;49.748;8.490;2023-05-10T06:35:38;2.60;;;1.33;;
51660;SDS011;37741;49.748;8.490;2023-05-10T06:38:04;3.20;;;1.45;;
51660;SDS011;37741;49.748;8.490;2023-05-10T06:40:29;4.70;;;1.65;;
51660;SDS011;37741;49.748;8.490;2023-05-10T06:42:55;2.58;;;1.83;;
51660;SDS011;37741;49.748;8.490;2023-05-10T06:45:21;3.42;;;1.73;;
51660;SDS011;37741;49.748;8.490;2023-05-10T06:47:46;2.83;;;1.60;;
51660;SDS011;37741;49.748;8.490;2023-05-10T06:50:12;2.47;;;1.85;;
51660;SDS011;37741;49.748;8.490;2023-05-10T06:52:38;2.53;;;1.70;;
51660;SDS011;37741;49.748;8.490;2023-05-10T06:55:04;3.72;;;1.83;;
51660;SDS011;37741;49.748;8.490;2023-05-10T06:57:30;2.30;;;1.50;;
51660;SDS011;37741;49.748;8.490;2023-05-10T06:59:57;2.90;;;1.98;;
51660;SDS011;37741;49.748;8.490;2023-05-10T07:02:23;2.80;;;1.73;;
51660;SDS011;37741;49.748;8.490;2023-05-10T07:04:48;2.80;;;1.80;;
51660;SDS011;37741;49.748;8.490;2023-05-10T07:07:14;3.10;;;1.98;;
51660;SDS011;37741;49.748;8.490;2023-05-10T07:09:40;2.80;;;1.70;;
51660;SDS011;37741;49.748;8.490;2023-05-10T07:12:06;2.30;;;1.80;;
51660;SDS011;37741;49.748;8.490;2023-05-10T07:14:31;3.25;;;2.10;;
51660;SDS011;37741;49.748;8.490;2023-05-10T07:16:57;2.83;;;1.67;;
51660;SDS011;37741;49.748;8.490;2023-05-10T07:19:23;2.40;;;1.70;;
51660;SDS011;37741;49.748;8.490;2023-05-10T07:21:48;2.90;;;1.90;;
51660;SDS011;37741;49.748;8.490;2023-05-10T07:24:15;4.35;;;1.95;;
51660;SDS011;37741;49.748;8.490;2023-05-10T07:26:41;2.72;;;2.00;;
51660;SDS011;37741;49.748;8.490;2023-05-10T07:29:07;3.15;;;2.20;;
51660;SDS011;37741;49.748;8.490;2023-05-10T07:31:32;3.38;;;1.92;;
51660;SDS011;37741;49.748;8.490;2023-05-10T07:33:58;2.45;;;1.60;;
51660;SDS011;37741;49.748;8.490;2023-05-10T07:36:23;3.08;;;1.80;;
51660;SDS011;37741;49.748;8.490;2023-05-10T07:38:49;3.67;;;1.70;;
51660;SDS011;37741;49.748;8.490;2023-05-10T07:41:14;2.83;;;1.67;;
51660;SDS011;37741;49.748;8.490;2023-05-10T07:43:40;2.80;;;1.92;;
51660;SDS011;37741;49.748;8.490;2023-05-10T07:46:06;2.40;;;1.50;;
51660;SDS011;37741;49.748;8.490;2023-05-10T07:48:31;2.40;;;1.50;;
51660;SDS011;37741;49.748;8.490;2023-05-10T07:50:57;4.10;;;1.45;;
51660;SDS011;37741;49.748;8.490;2023-05-10T07:53:23;3.30;;;1.50;;
51660;SDS011;37741;49.748;8.490;2023-05-10T07:55:50;2.20;;;1.50;;
51660;SDS011;37741;49.748;8.490;2023-05-10T07:58:16;2.17;;;1.35;;
51660;SDS011;37741;49.748;8.490;2023-05-10T08:00:42;2.80;;;1.40;;
51660;SDS011;37741;49.748;8.490;2023-05-10T08:03:07;2.50;;;1.45;;
51660;SDS011;37741;49.748;8.490;2023-05-10T08:05:33;1.83;;;1.20;;
51660;SDS011;37741;49.748;8.490;2023-05-10T08:07:59;2.38;;;1.20;;
51660;SDS011;37741;49.748;8.490;2023-05-10T08:10:25;2.65;;;1.25;;
51660;SDS011;37741;49.748;8.490;2023-05-10T08:12:50;3.75;;;1.40;;
51660;SDS011;37741;49.748;8.490;2023-05-10T08:15:16;3.58;;;1.70;;
51660;SDS011;37741;49.748;8.490;2023-05-10T08:17:42;2.40;;;1.30;;
51660;SDS011;37741;49.748;8.490;2023-05-10T08:20:08;2.72;;;1.58;;
51660;SDS011;37741;49.748;8.490;2023-05-10T08:22:34;4.68;;;1.40;;
51660;SDS011;37741;49.748;8.490;2023-05-10T08:24:59;1.80;;;1.02;;
51660;SDS011;37741;49.748;8.490;2023-05-10T08:27:25;1.80;;;1.20;;
51660;SDS011;37741;49.748;8.490;2023-05-10T08:29:50;2.03;;;1.13;;
51660;SDS011;37741;49.748;8.490;2023-05-10T08:32:16;3.70;;;1.38;;
51660;SDS011;37741;49.748;8.490;2023-05-10T08:34:42;3.17;;;1.00;;
51660;SDS011;37741;49.748;8.490;2023-05-10T08:37:08;2.08;;;1.10;;
51660;SDS011;37741;49.748;8.490;2023-05-10T08:39:34;1.67;;;1.20;;
51660;SDS011;37741;49.748;8.490;2023-05-10T08:42:01;2.08;;;1.13;;
51660;SDS011;37741;49.748;8.490;2023-05-10T08:44:29;3.80;;;1.25;;
51660;SDS011;37741;49.748;8.490;2023-05-10T08:46:57;2.05;;;0.95;;
51660;SDS011;37741;49.748;8.490;2023-05-10T08:49:26;2.55;;;1.05;;
51660;SDS011;37741;49.748;8.490;2023-05-10T08:51:55;1.85;;;0.82;;
51660;SDS011;37741;49.748;8.490;2023-05-10T08:54:22;1.95;;;1.10;;
51660;SDS011;37741;49.748;8.490;2023-05-10T08:56:48;2.72;;;1.08;;
51660;SDS011;37741;49.748;8.490;2023-05-10T08:59:13;4.57;;;0.90;;
51660;SDS011;37741;49.748;8.490;2023-05-10T09:01:40;3.28;;;1.05;;
51660;SDS011;37741;49.748;8.490;2023-05-10T09:04:07;2.03;;;1.02;;
51660;SDS011;37741;49.748;8.490;2023-05-10T09:06:33;1.80;;;0.77;;
51660;SDS011;37741;49.748;8.490;2023-05-10T09:08:59;1.90;;;0.70;;
51660;SDS011;37741;49.748;8.490;2023-05-10T09:11:25;1.30;;;0.70;;
51660;SDS011;37741;49.748;8.490;2023-05-10T09:13:53;2.03;;;0.73;;
51660;SDS011;37741;49.748;8.490;2023-05-10T09:16:20;2.10;;;0.80;;
51660;SDS011;37741;49.748;8.490;2023-05-10T09:18:46;1.00;;;0.60;;
51660;SDS011;37741;49.748;8.490;2023-05-10T09:21:11;4.80;;;0.75;;
51660;SDS011;37741;49.748;8.490;2023-05-10T09:23:38;1.42;;;0.60;;
51660;SDS011;37741;49.748;8.490;2023-05-10T09:26:08;1.55;;;0.80;;
51660;SDS011;37741;49.748;8.490;2023-05-10T09:28:34;1.52;;;0.77;;
51660;SDS011;37741;49.748;8.490;2023-05-10T09:31:18;2.05;;;0.80;;
51660;SDS011;37741;49.748;8.490;2023-05-10T09:33:44;1.35;;;0.80;;
51660;SDS011;37741;49.748;8.490;2023-05-10T09:36:11;1.73;;;0.50;;
51660;SDS011;37741;49.748;8.490;2023-05-10T09:38:51;1.30;;;0.93;;
51660;SDS011;37741;49.748;8.490;2023-05-10T09:41:23;1.63;;;0.80;;
51660;SDS011;37741;49.748;8.490;2023-05-10T09:43:50;1.63;;;0.80;;
51660;SDS011;37741;49.748;8.490;2023-05-10T09:46:20;3.30;;;0.80;;
51660;SDS011;37741;49.748;8.490;2023-05-10T09:48:47;2.58;;;0.70;;
51660;SDS011;37741;49.748;8.490;2023-05-10T09:51:22;1.38;;;0.63;;
51660;SDS011;37741;49.748;8.490;2023-05-10T09:56:34;1.73;;;0.80;;
51660;SDS011;37741;49.748;8.490;2023-05-10T09:59:03;1.00;;;0.57;;
51660;SDS011;37741;49.748;8.490;2023-05-10T10:01:30;1.65;;;0.70;;
51660;SDS011;37741;49.748;8.490;2023-05-10T10:03:56;1.38;;;0.70;;
51660;SDS011;37741;49.748;8.490;2023-05-10T10:06:23;1.95;;;0.65;;
51660;SDS011;37741;49.748;8.490;2023-05-10T10:08:49;1.27;;;0.70;;
51660;SDS011;37741;49.748;8.490;2023-05-10T10:11:16;3.83;;;0.90;;
51660;SDS011;37741;49.748;8.490;2023-05-10T10:13:42;1.23;;;0.60;;
51660;SDS011;37741;49.748;8.490;2023-05-10T10:16:08;1.30;;;0.60;;
51660;SDS011;37741;49.748;8.490;2023-05-10T10:18:34;2.35;;;0.60;;
51660;SDS011;37741;49.748;8.490;2023-05-10T10:21:04;0.80;;;0.40;;
51660;SDS011;37741;49.748;8.490;2023-05-10T10:23:36;1.80;;;0.60;;
51660;SDS011;37741;49.748;8.490;2023-05-10T10:26:02;3.08;;;0.80;;
51660;SDS011;37741;49.748;8.490;2023-05-10T10:28:38;1.30;;;0.70;;
51660;SDS011;37741;49.748;8.490;2023-05-10T10:31:32;1.65;;;0.80;;
51660;SDS011;37741;49.748;8.490;2023-05-10T10:34:08;1.35;;;0.70;;
51660;SDS011;37741;49.748;8.490;2023-05-10T10:36:42;2.42;;;0.95;;
51660;SDS011;37741;49.748;8.490;2023-05-10T10:39:10;6.43;;;1.02;;
51660;SDS011;37741;49.748;8.490;2023-05-10T10:41:50;3.17;;;1.45;;
51660;SDS011;37741;49.748;8.490;2023-05-10T10:49:33;4.03;;;1.23;;
51660;SDS011;37741;49.748;8.490;2023-05-10T10:54:58;1.70;;;1.05;;
51660;SDS011;37741;49.748;8.490;2023-05-10T10:57:27;1.10;;;0.68;;
51660;SDS011;37741;49.748;8.490;2023-05-10T11:02:47;1.77;;;0.85;;
51660;SDS011;37741;49.748;8.490;2023-05-10T11:05:23;1.60;;;0.63;;
51660;SDS011;37741;49.748;8.490;2023-05-10T11:08:11;1.35;;;0.63;;
51660;SDS011;37741;49.748;8.490;2023-05-10T11:10:37;5.22;;;0.73;;
51660;SDS011;37741;49.748;8.490;2023-05-10T11:13:07;0.88;;;0.57;;
51660;SDS011;37741;49.748;8.490;2023-05-10T11:15:35;1.98;;;0.60;;
51660;SDS011;37741;49.748;8.490;2023-05-10T11:18:20;2.40;;;0.68;;
51660;SDS011;37741;49.748;8.490;2023-05-10T11:20:50;1.13;;;0.60;;
51660;SDS011;37741;49.748;8.490;2023-05-10T11:23:32;2.13;;;0.70;;
51660;SDS011;37741;49.748;8.490;2023-05-10T11:26:12;2.92;;;0.68;;
51660;SDS011;37741;49.748;8.490;2023-05-10T11:28:42;1.45;;;0.60;;
51660;SDS011;37741;49.748;8.490;2023-05-10T11:31:18;1.10;;;0.60;;
51660;SDS011;37741;49.748;8.490;2023-05-10T11:33:45;1.05;;;0.52;;
51660;SDS011;37741;49.748;8.490;2023-05-10T11:36:13;1.13;;;0.63;;
51660;SDS011;37741;49.748;8.490;2023-05-10T11:38:40;1.75;;;0.60;;
51660;SDS011;37741;49.748;8.490;2023-05-10T11:41:07;1.45;;;0.98;;
51660;SDS011;37741;49.748;8.490;2023-05-10T11:43:34;0.93;;;0.50;;
51660;SDS011;37741;49.748;8.490;2023-05-10T11:46:00;1.73;;;0.60;;
51660;SDS011;37741;49.748;8.490;2023-05-10T11:48:26;2.40;;;0.77;;
51660;SDS011;37741;49.748;8.490;2023-05-10T11:50:51;1.83;;;0.80;;
51660;SDS011;37741;49.748;8.490;2023-05-10T11:53:20;2.88;;;0.75;;
51660;SDS011;37741;49.748;8.490;2023-05-10T11:55:45;1.60;;;0.75;;
51660;SDS011;37741;49.748;8.490;2023-05-10T11:58:12;1.30;;;0.70;;
51660;SDS011;37741;49.748;8.490;2023-05-10T12:00:38;2.08;;;0.68;;
51660;SDS011;37741;49.748;8.490;2023-05-10T12:03:04;1.13;;;0.60;;
51660;SDS011;37741;49.748;8.490;2023-05-10T12:05:31;3.33;;;0.77;;
51660;SDS011;37741;49.748;8.490;2023-05-10T12:08:21;1.17;;;0.65;;
51660;SDS011;37741;49.748;8.490;2023-05-10T12:10:49;3.80;;;0.70;;
51660;SDS011;37741;49.748;8.490;2023-05-10T12:13:15;1.60;;;0.52;;
51660;SDS011;37741;49.748;8.490;2023-05-10T12:15:43;1.45;;;0.50;;
51660;SDS011;37741;49.748;8.490;2023-05-10T12:18:09;1.00;;;0.60;;
51660;SDS011;37741;49.748;8.490;2023-05-10T12:20:35;1.35;;;0.57;;
51660;SDS011;37741;49.748;8.490;2023-05-10T12:23:01;1.52;;;0.70;;
51660;SDS011;37741;49.748;8.490;2023-05-10T12:25:32;3.47;;;0.80;;
51660;SDS011;37741;49.748;8.490;2023-05-10T12:27:59;1.15;;;0.50;;
51660;SDS011;37741;49.748;8.490;2023-05-10T12:30:28;1.35;;;0.70;;
51660;SDS011;37741;49.748;8.490;2023-05-10T12:32:59;1.52;;;0.50;;
51660;SDS011;37741;49.748;8.490;2023-05-10T12:35:32;0.98;;;0.57;;
51660;SDS011;37741;49.748;8.490;2023-05-10T12:38:24;0.95;;;0.50;;
51660;SDS011;37741;49.748;8.490;2023-05-10T12:40:55;1.30;;;0.68;;
51660;SDS011;37741;49.748;8.490;2023-05-10T12:43:25;1.17;;;0.60;;
51660;SDS011;37741;49.748;8.490;2023-05-10T12:45:51;2.55;;;0.75;;
51660;SDS011;37741;49.748;8.490;2023-05-10T12:48:16;1.67;;;0.70;;
51660;SDS011;37741;49.748;8.490;2023-05-10T12:50:42;0.88;;;0.50;;
51660;SDS011;37741;49.748;8.490;2023-05-10T12:53:07;1.17;;;0.47;;
51660;SDS011;37741;49.748;8.490;2023-05-10T12:55:33;3.92;;;0.70;;
51660;SDS011;37741;49.748;8.490;2023-05-10T12:57:59;3.00;;;0.68;;
51660;SDS011;37741;49.748;8.490;2023-05-10T13:00:25;1.33;;;0.70;;
51660;SDS011;37741;49.748;8.490;2023-05-10T13:02:51;2.15;;;0.57;;
51660;SDS011;37741;49.748;8.490;2023-05-10T13:05:17;2.13;;;0.73;;
51660;SDS011;37741;49.748;8.490;2023-05-10T13:07:42;2.22;;;0.70;;
51660;SDS011;37741;49.748;8.490;2023-05-10T13:10:09;1.35;;;0.50;;
51660;SDS011;37741;49.748;8.490;2023-05-10T13:12:35;1.38;;;0.60;;
51660;SDS011;37741;49.748;8.490;2023-05-10T13:15:01;1.45;;;0.60;;
51660;SDS011;37741;49.748;8.490;2023-05-10T13:17:28;1.40;;;0.52;;
51660;SDS011;37741;49.748;8.490;2023-05-10T13:19:54;3.20;;;0.75;;
51660;SDS011;37741;49.748;8.490;2023-05-10T13:22:20;1.67;;;0.70;;
51660;SDS011;37741;49.748;8.490;2023-05-10T13:24:45;1.73;;;0.50;;
51660;SDS011;37741;49.748;8.490;2023-05-10T13:27:11;2.38;;;0.80;;
51660;SDS011;37741;49.748;8.490;2023-05-10T13:29:36;3.92;;;0.90;;
51660;SDS011;37741;49.748;8.490;2023-05-10T13:32:02;1.20;;;0.50;;
51660;SDS011;37741;49.748;8.490;2023-05-10T13:34:28;3.45;;;0.70;;
51660;SDS011;37741;49.748;8.490;2023-05-10T13:36:53;3.75;;;0.90;;
51660;SDS011;37741;49.748;8.490;2023-05-10T13:39:20;2.13;;;0.70;;
51660;SDS011;37741;49.748;8.490;2023-05-10T13:41:49;2.03;;;0.70;;
51660;SDS011;37741;49.748;8.490;2023-05-10T13:44:14;1.83;;;0.82;;
51660;SDS011;37741;49.748;8.490;2023-05-10T13:46:41;1.77;;;0.75;;
51660;SDS011;37741;49.748;8.490;2023-05-10T13:49:10;1.77;;;0.55;;
51660;SDS011;37741;49.748;8.490;2023-05-10T13:51:36;1.75;;;0.70;;
51660;SDS011;37741;49.748;8.490;2023-05-10T13:54:02;3.10;;;0.70;;
51660;SDS011;37741;49.748;8.490;2023-05-10T13:56:28;2.85;;;0.90;;
51660;SDS011;37741;49.748;8.490;2023-05-10T13:58:53;2.92;;;0.80;;
51660;SDS011;37741;49.748;8.490;2023-05-10T14:01:19;2.60;;;0.70;;
51660;SDS011;37741;49.748;8.490;2023-05-10T14:03:45;1.63;;;0.65;;
51660;SDS011;37741;49.748;8.490;2023-05-10T14:06:10;3.30;;;0.80;;
51660;SDS011;37741;49.748;8.490;2023-05-10T14:08:36;3.35;;;0.90;;
51660;SDS011;37741;49.748;8.490;2023-05-10T14:11:02;1.30;;;0.60;;
51660;SDS011;37741;49.748;8.490;2023-05-10T14:13:27;2.83;;;0.80;;
51660;SDS011;37741;49.748;8.490;2023-05-10T14:15:53;2.45;;;0.88;;
51660;SDS011;37741;49.748;8.490;2023-05-10T14:18:19;3.95;;;0.95;;
51660;SDS011;37741;49.748;8.490;2023-05-10T14:20:45;1.48;;;0.60;;
51660;SDS011;37741;49.748;8.490;2023-05-10T14:23:10;1.10;;;0.50;;
51660;SDS011;37741;49.748;8.490;2023-05-10T14:25:37;2.00;;;0.55;;
51660;SDS011;37741;49.748;8.490;2023-05-10T14:28:04;2.55;;;1.00;;
51660;SDS011;37741;49.748;8.490;2023-05-10T14:30:30;4.20;;;0.50;;
51660;SDS011;37741;49.748;8.490;2023-05-10T14:32:56;2.08;;;0.50;;
51660;SDS011;37741;49.748;8.490;2023-05-10T14:35:23;2.30;;;0.60;;
51660;SDS011;37741;49.748;8.490;2023-05-10T14:37:48;2.58;;;0.70;;
51660;SDS011;37741;49.748;8.490;2023-05-10T14:40:14;1.70;;;0.65;;
51660;SDS011;37741;49.748;8.490;2023-05-10T14:42:40;1.50;;;0.57;;
51660;SDS011;37741;49.748;8.490;2023-05-10T14:45:08;1.77;;;0.57;;
51660;SDS011;37741;49.748;8.490;2023-05-10T14:47:37;3.60;;;0.82;;
51660;SDS011;37741;49.748;8.490;2023-05-10T14:50:03;2.42;;;0.70;;
51660;SDS011;37741;49.748;8.490;2023-05-10T14:52:29;2.78;;;0.60;;
51660;SDS011;37741;49.748;8.490;2023-05-10T14:54:54;3.55;;;0.93;;
51660;SDS011;37741;49.748;8.490;2023-05-10T14:57:20;1.90;;;0.47;;
51660;SDS011;37741;49.748;8.490;2023-05-10T14:59:46;1.92;;;0.70;;
51660;SDS011;37741;49.748;8.490;2023-05-10T15:02:11;2.53;;;0.60;;
51660;SDS011;37741;49.748;8.490;2023-05-10T15:04:37;3.38;;;0.80;;
51660;SDS011;37741;49.748;8.490;2023-05-10T15:07:03;2.08;;;0.60;;
51660;SDS011;37741;49.748;8.490;2023-05-10T15:09:29;1.30;;;0.50;;
51660;SDS011;37741;49.748;8.490;2023-05-10T15:11:55;4.00;;;1.02;;
51660;SDS011;37741;49.748;8.490;2023-05-10T15:14:21;2.20;;;0.60;;
51660;SDS011;37741;49.748;8.490;2023-05-10T15:16:47;1.63;;;0.50;;
51660;SDS011;37741;49.748;8.490;2023-05-10T15:19:13;2.50;;;1.35;;
51660;SDS011;37741;49.748;8.490;2023-05-10T15:21:38;3.50;;;0.70;;